sensor_id;sensor_type;location;lat;lon;timestamp;temperature;humidity
11385;DHT22;5747;56.748;13.882;2024-01-15T00:01:04;-0.50;99.90
11385;DHT22;5747;56.748;13.882;2024-01-15T00:03:32;-0.60;99.90
11385;DHT22;5747;56.748;13.882;2024-01-15T00:06:00;-0.70;99.90
11385;DHT22;5747;56.748;13.882;2024-01-15T00:08:28;-0.90;99.90
11385;DHT22;5747;56.748;13.882;2024-01-15T00:10:56;-0.90;99.90
11385;DHT22;5747;56.748;13.882;2024-01-15T00:13:26;-0.80;99.90
11385;DHT22;5747;56.748;13.882;2024-01-15T00:15:54;-0.90;99.90
11385;DHT22;5747;56.748;13.882;2024-01-15T00:18:21;-1.00;99.90
11385;DHT22;5747;56.748;13.882;2024-01-15T00:20:50;-1.00;99.90
11385;DHT22;5747;56.748;13.882;2024-01-15T00:23:18;-1.00;99.90
11385;DHT22;5747;56.748;13.882;2024-01-15T00:25:46;-1.00;99.90
11385;DHT22;5747;56.748;13.882;2024-01-15T00:28:14;-1.00;99.90
11385;DHT22;5747;56.748;13.882;2024-01-15T00:30:44;-0.90;99.90
11385;DHT22;5747;56.748;13.882;2024-01-15T00:33:12;-1.00;99.90
11385;DHT22;5747;56.748;13.882;2024-01-15T00:35:42;-1.00;99.90
11385;DHT22;5747;56.748;13.882;2024-01-15T00:38:10;-1.00;99.90
11385;DHT22;5747;56.748;13.882;2024-01-15T00:40:38;-0.90;99.90
11385;DHT22;5747;56.748;13.882;2024-01-15T00:43:06;-0.90;99.90
11385;DHT22;5747;56.748;13.882;2024-01-15T00:45:35;-0.80;99.90
11385;DHT22;5747;56.748;13.882;2024-01-15T00:48:05;-0.70;99.90
11385;DHT22;5747;56.748;13.882;2024-01-15T00:50:33;-0.70;99.90
11385;DHT22;5747;56.748;13.882;2024-01-15T00:53:01;-0.60;99.90
11385;DHT22;5747;56.748;13.882;2024-01-15T00:55:29;-0.70;99.90
11385;DHT22;5747;56.748;13.882;2024-01-15T00:57:57;-0.60;99.90
11385;DHT22;5747;56.748;13.882;2024-01-15T01:00:26;-0.60;99.90
11385;DHT22;5747;56.748;13.882;2024-01-15T01:02:54;-0.60;99.90
11385;DHT22;5747;56.748;13.882;2024-01-15T01:05:24;-0.60;99.90
11385;DHT22;5747;56.748;13.882;2024-01-15T01:07:52;-0.60;99.90
11385;DHT22;5747;56.748;13.882;2024-01-15T01:10:20;-0.70;99.90
11385;DHT22;5747;56.748;13.882;2024-01-15T01:12:48;-0.70;99.90
11385;DHT22;5747;56.748;13.882;2024-01-15T01:15:16;-0.70;99.90
11385;DHT22;5747;56.748;13.882;2024-01-15T01:17:44;-0.80;99.90
11385;DHT22;5747;56.748;13.882;2024-01-15T01:20:13;-0.90;99.90
11385;DHT22;5747;56.748;13.882;2024-01-15T01:22:46;-1.00;99.90
11385;DHT22;5747;56.748;13.882;2024-01-15T01:25:14;-1.10;99.90
11385;DHT22;5747;56.748;13.882;2024-01-15T01:27:43;-1.30;99.90
11385;DHT22;5747;56.748;13.882;2024-01-15T01:30:11;-1.40;99.90
11385;DHT22;5747;56.748;13.882;2024-01-15T01:32:39;-1.40;99.90
11385;DHT22;5747;56.748;13.882;2024-01-15T01:35:08;-1.50;99.90
11385;DHT22;5747;56.748;13.882;2024-01-15T01:37:36;-1.60;99.90
11385;DHT22;5747;56.748;13.882;2024-01-15T01:40:07;-1.70;99.90
11385;DHT22;5747;56.748;13.882;2024-01-15T01:42:35;-1.90;99.90
11385;DHT22;5747;56.748;13.882;2024-01-15T01:45:04;-1.90;99.90
11385;DHT22;5747;56.748;13.882;2024-01-15T01:47:32;-1.80;99.90
11385;DHT22;5747;56.748;13.882;2024-01-15T01:50:02;-1.90;99.90
11385;DHT22;5747;56.748;13.882;2024-01-15T01:52:30;-1.80;99.90
11385;DHT22;5747;56.748;13.882;2024-01-15T01:55:00;-1.70;99.90
11385;DHT22;5747;56.748;13.882;2024-01-15T01:57:32;-1.50;99.90
11385;DHT22;5747;56.748;13.882;2024-01-15T02:00:03;-1.50;99.90
11385;DHT22;5747;56.748;13.882;2024-01-15T02:02:37;-1.30;99.90
11385;DHT22;5747;56.748;13.882;2024-01-15T02:05:06;-1.30;99.90
11385;DHT22;5747;56.748;13.882;2024-01-15T02:07:35;-1.20;99.90
11385;DHT22;5747;56.748;13.882;2024-01-15T02:10:04;-1.20;99.90
11385;DHT22;5747;56.748;13.882;2024-01-15T02:12:34;-1.10;99.90
11385;DHT22;5747;56.748;13.882;2024-01-15T02:15:03;-1.00;99.90
11385;DHT22;5747;56.748;13.882;2024-01-15T02:17:31;-1.00;99.90
11385;DHT22;5747;56.748;13.882;2024-01-15T02:19:59;-1.00;99.90
11385;DHT22;5747;56.748;13.882;2024-01-15T02:22:27;-0.90;99.90
11385;DHT22;5747;56.748;13.882;2024-01-15T02:24:57;-1.00;99.90
11385;DHT22;5747;56.748;13.882;2024-01-15T02:27:25;-0.90;99.90
11385;DHT22;5747;56.748;13.882;2024-01-15T02:29:53;-0.90;99.90
11385;DHT22;5747;56.748;13.882;2024-01-15T02:32:21;-0.80;99.90
11385;DHT22;5747;56.748;13.882;2024-01-15T02:34:50;-0.80;99.90
11385;DHT22;5747;56.748;13.882;2024-01-15T02:37:18;-0.70;99.90
11385;DHT22;5747;56.748;13.882;2024-01-15T02:39:47;-0.70;99.90
11385;DHT22;5747;56.748;13.882;2024-01-15T02:42:17;-0.50;99.90
11385;DHT22;5747;56.748;13.882;2024-01-15T02:44:45;-0.40;99.90
11385;DHT22;5747;56.748;13.882;2024-01-15T02:47:13;-0.40;99.90
11385;DHT22;5747;56.748;13.882;2024-01-15T02:49:41;-0.50;99.90
11385;DHT22;5747;56.748;13.882;2024-01-15T02:52:09;-0.60;99.90
11385;DHT22;5747;56.748;13.882;2024-01-15T02:54:37;-0.70;99.90
11385;DHT22;5747;56.748;13.882;2024-01-15T02:57:06;-0.50;99.90
11385;DHT22;5747;56.748;13.882;2024-01-15T02:59:35;-0.50;99.90
11385;DHT22;5747;56.748;13.882;2024-01-15T03:02:03;-0.50;99.90
11385;DHT22;5747;56.748;13.882;2024-01-15T03:04:32;-0.60;99.90
11385;DHT22;5747;56.748;13.882;2024-01-15T03:07:00;-0.60;99.90
11385;DHT22;5747;56.748;13.882;2024-01-15T03:09:28;-0.40;99.90
11385;DHT22;5747;56.748;13.882;2024-01-15T03:11:56;-0.40;99.90
11385;DHT22;5747;56.748;13.882;2024-01-15T03:14:24;-0.30;99.90
11385;DHT22;5747;56.748;13.882;2024-01-15T03:16:54;-0.20;99.90
11385;DHT22;5747;56.748;13.882;2024-01-15T03:19:22;-0.20;99.90
11385;DHT22;5747;56.748;13.882;2024-01-15T03:21:50;-0.20;99.90
11385;DHT22;5747;56.748;13.882;2024-01-15T03:24:19;-0.30;99.90
11385;DHT22;5747;56.748;13.882;2024-01-15T03:26:47;-0.30;99.90
11385;DHT22;5747;56.748;13.882;2024-01-15T03:29:15;-0.30;99.90
11385;DHT22;5747;56.748;13.882;2024-01-15T03:31:43;-0.20;99.90
11385;DHT22;5747;56.748;13.882;2024-01-15T03:34:13;-0.10;99.90
11385;DHT22;5747;56.748;13.882;2024-01-15T03:36:41;0.00;99.90
11385;DHT22;5747;56.748;13.882;2024-01-15T03:39:09;0.00;99.90
11385;DHT22;5747;56.748;13.882;2024-01-15T03:41:38;0.00;99.90
11385;DHT22;5747;56.748;13.882;2024-01-15T03:44:06;-0.20;99.90
11385;DHT22;5747;56.748;13.882;2024-01-15T03:46:34;-0.10;99.90
11385;DHT22;5747;56.748;13.882;2024-01-15T03:49:02;-0.30;99.90
11385;DHT22;5747;56.748;13.882;2024-01-15T03:51:32;-0.50;99.90
11385;DHT22;5747;56.748;13.882;2024-01-15T03:54:00;-0.60;99.90
11385;DHT22;5747;56.748;13.882;2024-01-15T03:56:28;-0.60;99.90
11385;DHT22;5747;56.748;13.882;2024-01-15T03:58:56;-0.50;99.90
11385;DHT22;5747;56.748;13.882;2024-01-15T04:01:24;-0.50;99.90
11385;DHT22;5747;56.748;13.882;2024-01-15T04:03:52;-0.50;99.90
11385;DHT22;5747;56.748;13.882;2024-01-15T04:06:21;-0.60;99.90
11385;DHT22;5747;56.748;13.882;2024-01-15T04:08:50;-0.60;99.90
11385;DHT22;5747;56.748;13.882;2024-01-15T04:11:19;-0.50;99.90
11385;DHT22;5747;56.748;13.882;2024-01-15T04:13:47;-0.40;99.90
11385;DHT22;5747;56.748;13.882;2024-01-15T04:16:15;-0.40;99.90
11385;DHT22;5747;56.748;13.882;2024-01-15T04:18:43;-0.50;99.90
11385;DHT22;5747;56.748;13.882;2024-01-15T04:21:11;-0.50;99.90
11385;DHT22;5747;56.748;13.882;2024-01-15T04:23:39;-0.80;99.90
11385;DHT22;5747;56.748;13.882;2024-01-15T04:26:09;-0.70;99.90
11385;DHT22;5747;56.748;13.882;2024-01-15T04:28:37;-0.70;99.90
11385;DHT22;5747;56.748;13.882;2024-01-15T04:31:05;-0.60;99.90
11385;DHT22;5747;56.748;13.882;2024-01-15T04:33:34;-0.50;99.90
11385;DHT22;5747;56.748;13.882;2024-01-15T04:36:03;-0.50;99.90
11385;DHT22;5747;56.748;13.882;2024-01-15T04:38:31;-0.40;99.90
11385;DHT22;5747;56.748;13.882;2024-01-15T04:41:00;-0.40;99.90
11385;DHT22;5747;56.748;13.882;2024-01-15T04:43:29;-0.40;99.90
11385;DHT22;5747;56.748;13.882;2024-01-15T04:45:57;-0.30;99.90
11385;DHT22;5747;56.748;13.882;2024-01-15T04:48:26;-0.30;99.90
11385;DHT22;5747;56.748;13.882;2024-01-15T04:50:54;-0.30;99.90
11385;DHT22;5747;56.748;13.882;2024-01-15T04:53:22;-0.40;99.90
11385;DHT22;5747;56.748;13.882;2024-01-15T04:55:50;-0.40;99.90
11385;DHT22;5747;56.748;13.882;2024-01-15T04:58:18;-0.50;99.90
11385;DHT22;5747;56.748;13.882;2024-01-15T05:00:48;-0.60;99.90
11385;DHT22;5747;56.748;13.882;2024-01-15T05:03:16;-0.60;99.90
11385;DHT22;5747;56.748;13.882;2024-01-15T05:05:44;-0.70;99.90
11385;DHT22;5747;56.748;13.882;2024-01-15T05:08:12;-0.80;99.90
11385;DHT22;5747;56.748;13.882;2024-01-15T05:10:44;-0.90;99.90
11385;DHT22;5747;56.748;13.882;2024-01-15T05:13:12;-1.00;99.90
11385;DHT22;5747;56.748;13.882;2024-01-15T05:15:40;-1.00;99.90
11385;DHT22;5747;56.748;13.882;2024-01-15T05:18:10;-1.10;99.90
11385;DHT22;5747;56.748;13.882;2024-01-15T05:20:38;-1.10;99.90
11385;DHT22;5747;56.748;13.882;2024-01-15T05:23:06;-1.20;99.90
11385;DHT22;5747;56.748;13.882;2024-01-15T05:25:35;-1.20;99.90
11385;DHT22;5747;56.748;13.882;2024-01-15T05:28:04;-1.30;99.90
11385;DHT22;5747;56.748;13.882;2024-01-15T05:30:32;-1.30;99.90
11385;DHT22;5747;56.748;13.882;2024-01-15T05:33:00;-1.40;99.90
11385;DHT22;5747;56.748;13.882;2024-01-15T05:35:31;-1.40;99.90
11385;DHT22;5747;56.748;13.882;2024-01-15T05:37:58;-1.50;99.90
11385;DHT22;5747;56.748;13.882;2024-01-15T05:40:26;-1.50;99.90
11385;DHT22;5747;56.748;13.882;2024-01-15T05:42:54;-1.50;99.90
11385;DHT22;5747;56.748;13.882;2024-01-15T05:45:22;-1.60;99.90
11385;DHT22;5747;56.748;13.882;2024-01-15T05:47:50;-1.60;99.90
11385;DHT22;5747;56.748;13.882;2024-01-15T05:50:19;-1.60;99.90
11385;DHT22;5747;56.748;13.882;2024-01-15T05:52:48;-1.70;99.90
11385;DHT22;5747;56.748;13.882;2024-01-15T05:55:16;-1.70;99.90
11385;DHT22;5747;56.748;13.882;2024-01-15T05:57:45;-1.80;99.90
11385;DHT22;5747;56.748;13.882;2024-01-15T06:00:14;-1.80;99.90
11385;DHT22;5747;56.748;13.882;2024-01-15T06:02:42;-1.90;99.90
11385;DHT22;5747;56.748;13.882;2024-01-15T06:05:10;-2.00;99.90
11385;DHT22;5747;56.748;13.882;2024-01-15T06:07:38;-2.00;99.90
11385;DHT22;5747;56.748;13.882;2024-01-15T06:10:08;-2.10;99.90
11385;DHT22;5747;56.748;13.882;2024-01-15T06:12:37;-2.20;99.90
11385;DHT22;5747;56.748;13.882;2024-01-15T06:15:05;-2.30;99.90
11385;DHT22;5747;56.748;13.882;2024-01-15T06:17:33;-2.40;99.90
11385;DHT22;5747;56.748;13.882;2024-01-15T06:20:02;-2.50;99.90
11385;DHT22;5747;56.748;13.882;2024-01-15T06:22:30;-2.50;99.90
11385;DHT22;5747;56.748;13.882;2024-01-15T06:24:58;-2.60;99.90
11385;DHT22;5747;56.748;13.882;2024-01-15T06:27:28;-2.60;99.90
11385;DHT22;5747;56.748;13.882;2024-01-15T06:29:56;-2.70;99.90
11385;DHT22;5747;56.748;13.882;2024-01-15T06:32:24;-2.70;99.90
11385;DHT22;5747;56.748;13.882;2024-01-15T06:34:52;-2.80;99.90
11385;DHT22;5747;56.748;13.882;2024-01-15T06:37:20;-2.90;99.90
11385;DHT22;5747;56.748;13.882;2024-01-15T06:39:49;-2.80;99.90
11385;DHT22;5747;56.748;13.882;2024-01-15T06:42:17;-2.70;99.90
11385;DHT22;5747;56.748;13.882;2024-01-15T06:44:47;-2.70;99.90
11385;DHT22;5747;56.748;13.882;2024-01-15T06:47:15;-2.60;99.90
11385;DHT22;5747;56.748;13.882;2024-01-15T06:49:44;-2.50;99.90
11385;DHT22;5747;56.748;13.882;2024-01-15T06:52:12;-2.40;99.90
11385;DHT22;5747;56.748;13.882;2024-01-15T06:54:40;-2.40;99.90
11385;DHT22;5747;56.748;13.882;2024-01-15T06:57:08;-2.30;99.90
11385;DHT22;5747;56.748;13.882;2024-01-15T06:59:37;-2.30;99.90
11385;DHT22;5747;56.748;13.882;2024-01-15T07:02:06;-2.30;99.90
11385;DHT22;5747;56.748;13.882;2024-01-15T07:04:34;-2.30;99.90
11385;DHT22;5747;56.748;13.882;2024-01-15T07:07:04;-2.20;99.90
11385;DHT22;5747;56.748;13.882;2024-01-15T07:09:32;-2.20;99.90
11385;DHT22;5747;56.748;13.882;2024-01-15T07:12:00;-2.20;99.90
11385;DHT22;5747;56.748;13.882;2024-01-15T07:14:28;-2.20;99.90
11385;DHT22;5747;56.748;13.882;2024-01-15T07:16:56;-2.30;99.90
11385;DHT22;5747;56.748;13.882;2024-01-15T07:19:26;-2.40;99.90
11385;DHT22;5747;56.748;13.882;2024-01-15T07:21:55;-2.50;99.90
11385;DHT22;5747;56.748;13.882;2024-01-15T07:24:23;-2.60;99.90
11385;DHT22;5747;56.748;13.882;2024-01-15T07:26:51;-2.60;99.90
11385;DHT22;5747;56.748;13.882;2024-01-15T07:29:19;-2.70;99.90
11385;DHT22;5747;56.748;13.882;2024-01-15T07:31:49;-2.80;99.90
11385;DHT22;5747;56.748;13.882;2024-01-15T07:34:17;-2.80;99.90
11385;DHT22;5747;56.748;13.882;2024-01-15T07:36:47;-2.90;99.90
11385;DHT22;5747;56.748;13.882;2024-01-15T07:39:15;-3.00;99.90
11385;DHT22;5747;56.748;13.882;2024-01-15T07:41:43;-3.10;99.90
11385;DHT22;5747;56.748;13.882;2024-01-15T07:44:12;-3.10;99.90
11385;DHT22;5747;56.748;13.882;2024-01-15T07:46:40;-3.20;99.90
11385;DHT22;5747;56.748;13.882;2024-01-15T07:49:11;-3.30;99.90
11385;DHT22;5747;56.748;13.882;2024-01-15T07:51:40;-3.40;99.90
11385;DHT22;5747;56.748;13.882;2024-01-15T07:54:12;-3.50;99.90
11385;DHT22;5747;56.748;13.882;2024-01-15T07:56:56;-3.60;99.90
11385;DHT22;5747;56.748;13.882;2024-01-15T07:59:25;-3.60;99.90
11385;DHT22;5747;56.748;13.882;2024-01-15T08:01:53;-3.80;99.90
11385;DHT22;5747;56.748;13.882;2024-01-15T08:04:21;-3.80;99.90
11385;DHT22;5747;56.748;13.882;2024-01-15T08:06:50;-3.80;99.90
11385;DHT22;5747;56.748;13.882;2024-01-15T08:09:20;-3.80;99.90
11385;DHT22;5747;56.748;13.882;2024-01-15T08:11:49;-3.90;99.90
11385;DHT22;5747;56.748;13.882;2024-01-15T08:14:17;-3.90;99.90
11385;DHT22;5747;56.748;13.882;2024-01-15T08:16:46;-3.90;99.90
11385;DHT22;5747;56.748;13.882;2024-01-15T08:19:14;-4.00;99.90
11385;DHT22;5747;56.748;13.882;2024-01-15T08:21:42;-4.10;99.90
11385;DHT22;5747;56.748;13.882;2024-01-15T08:24:11;-4.00;99.90
11385;DHT22;5747;56.748;13.882;2024-01-15T08:26:40;-4.10;99.90
11385;DHT22;5747;56.748;13.882;2024-01-15T08:29:08;-4.20;99.90
11385;DHT22;5747;56.748;13.882;2024-01-15T08:31:36;-4.30;99.90
11385;DHT22;5747;56.748;13.882;2024-01-15T08:34:05;-4.40;99.90
11385;DHT22;5747;56.748;13.882;2024-01-15T08:36:33;-4.40;99.90
11385;DHT22;5747;56.748;13.882;2024-01-15T08:39:03;-4.40;99.90
11385;DHT22;5747;56.748;13.882;2024-01-15T08:41:32;-4.40;99.90
11385;DHT22;5747;56.748;13.882;2024-01-15T08:44:02;-4.50;99.90
11385;DHT22;5747;56.748;13.882;2024-01-15T08:46:30;-4.60;99.90
11385;DHT22;5747;56.748;13.882;2024-01-15T08:48:58;-4.60;99.90
11385;DHT22;5747;56.748;13.882;2024-01-15T08:51:27;-4.70;99.90
11385;DHT22;5747;56.748;13.882;2024-01-15T08:53:55;-4.70;99.90
11385;DHT22;5747;56.748;13.882;2024-01-15T08:56:24;-4.70;99.90
11385;DHT22;5747;56.748;13.882;2024-01-15T08:58:54;-4.70;99.90
11385;DHT22;5747;56.748;13.882;2024-01-15T09:01:23;-4.80;99.90
11385;DHT22;5747;56.748;13.882;2024-01-15T09:03:52;-4.90;99.90
11385;DHT22;5747;56.748;13.882;2024-01-15T09:06:20;-4.90;99.90
11385;DHT22;5747;56.748;13.882;2024-01-15T09:08:48;-4.80;99.90
11385;DHT22;5747;56.748;13.882;2024-01-15T09:11:16;-4.80;99.90
11385;DHT22;5747;56.748;13.882;2024-01-15T09:13:44;-4.70;99.90
11385;DHT22;5747;56.748;13.882;2024-01-15T09:16:13;-4.70;99.90
11385;DHT22;5747;56.748;13.882;2024-01-15T09:18:42;-4.70;99.90
11385;DHT22;5747;56.748;13.882;2024-01-15T09:21:11;-4.60;99.90
11385;DHT22;5747;56.748;13.882;2024-01-15T09:23:39;-4.60;99.90
11385;DHT22;5747;56.748;13.882;2024-01-15T09:26:08;-4.70;99.90
11385;DHT22;5747;56.748;13.882;2024-01-15T09:28:36;-4.70;99.90
11385;DHT22;5747;56.748;13.882;2024-01-15T09:31:04;-4.70;99.90
11385;DHT22;5747;56.748;13.882;2024-01-15T09:33:33;-4.70;99.90
11385;DHT22;5747;56.748;13.882;2024-01-15T09:36:03;-4.70;99.90
11385;DHT22;5747;56.748;13.882;2024-01-15T09:38:32;-4.70;99.90
11385;DHT22;5747;56.748;13.882;2024-01-15T09:41:00;-4.80;99.90
11385;DHT22;5747;56.748;13.882;2024-01-15T09:43:28;-4.80;99.90
11385;DHT22;5747;56.748;13.882;2024-01-15T09:45:57;-4.70;99.90
11385;DHT22;5747;56.748;13.882;2024-01-15T09:48:25;-4.80;99.90
11385;DHT22;5747;56.748;13.882;2024-01-15T09:50:57;-4.80;99.90
11385;DHT22;5747;56.748;13.882;2024-01-15T09:53:28;-4.90;99.90
11385;DHT22;5747;56.748;13.882;2024-01-15T09:55:57;-4.90;99.90
11385;DHT22;5747;56.748;13.882;2024-01-15T09:58:25;-4.90;99.90
11385;DHT22;5747;56.748;13.882;2024-01-15T10:00:57;-4.90;99.90
11385;DHT22;5747;56.748;13.882;2024-01-15T10:03:25;-5.00;99.90
11385;DHT22;5747;56.748;13.882;2024-01-15T10:05:54;-4.90;99.90
11385;DHT22;5747;56.748;13.882;2024-01-15T10:08:23;-5.00;99.90
11385;DHT22;5747;56.748;13.882;2024-01-15T10:10:53;-4.90;99.90
11385;DHT22;5747;56.748;13.882;2024-01-15T10:13:21;-5.00;99.90
11385;DHT22;5747;56.748;13.882;2024-01-15T10:15:50;-5.00;99.90
11385;DHT22;5747;56.748;13.882;2024-01-15T10:18:18;-5.10;99.90
11385;DHT22;5747;56.748;13.882;2024-01-15T10:20:47;-5.00;99.90
11385;DHT22;5747;56.748;13.882;2024-01-15T10:23:15;-5.10;99.90
11385;DHT22;5747;56.748;13.882;2024-01-15T10:25:43;-5.10;99.90
11385;DHT22;5747;56.748;13.882;2024-01-15T10:28:13;-5.10;99.90
11385;DHT22;5747;56.748;13.882;2024-01-15T10:30:42;-5.10;99.90
11385;DHT22;5747;56.748;13.882;2024-01-15T10:33:10;-5.00;99.90
11385;DHT22;5747;56.748;13.882;2024-01-15T10:35:39;-5.00;99.90
11385;DHT22;5747;56.748;13.882;2024-01-15T10:38:08;-4.90;99.90
11385;DHT22;5747;56.748;13.882;2024-01-15T10:40:37;-4.90;99.90
11385;DHT22;5747;56.748;13.882;2024-01-15T10:43:05;-4.90;99.90
11385;DHT22;5747;56.748;13.882;2024-01-15T10:45:34;-4.90;99.90
11385;DHT22;5747;56.748;13.882;2024-01-15T10:48:03;-4.90;99.90
11385;DHT22;5747;56.748;13.882;2024-01-15T10:50:32;-5.10;99.90
11385;DHT22;5747;56.748;13.882;2024-01-15T10:53:00;-5.10;99.90
11385;DHT22;5747;56.748;13.882;2024-01-15T10:55:30;-5.20;99.90
11385;DHT22;5747;56.748;13.882;2024-01-15T10:57:59;-5.20;99.90
11385;DHT22;5747;56.748;13.882;2024-01-15T11:00:28;-5.30;99.90
11385;DHT22;5747;56.748;13.882;2024-01-15T11:02:57;-5.30;99.90
11385;DHT22;5747;56.748;13.882;2024-01-15T11:05:28;-5.30;99.90
11385;DHT22;5747;56.748;13.882;2024-01-15T11:07:56;-5.30;99.90
11385;DHT22;5747;56.748;13.882;2024-01-15T11:10:44;-5.30;99.90
11385;DHT22;5747;56.748;13.882;2024-01-15T11:13:15;-5.30;99.90
11385;DHT22;5747;56.748;13.882;2024-01-15T11:15:56;-5.40;99.90
11385;DHT22;5747;56.748;13.882;2024-01-15T11:18:28;-5.40;99.90
11385;DHT22;5747;56.748;13.882;2024-01-15T11:21:25;-5.40;99.90
11385;DHT22;5747;56.748;13.882;2024-01-15T11:23:55;-5.40;99.90
11385;DHT22;5747;56.748;13.882;2024-01-15T11:26:29;-5.50;99.90
11385;DHT22;5747;56.748;13.882;2024-01-15T11:28:57;-5.50;99.90
11385;DHT22;5747;56.748;13.882;2024-01-15T11:31:28;-5.60;99.90
11385;DHT22;5747;56.748;13.882;2024-01-15T11:33:58;-5.70;99.90
11385;DHT22;5747;56.748;13.882;2024-01-15T11:37:00;-5.70;99.90
11385;DHT22;5747;56.748;13.882;2024-01-15T11:39:41;-5.70;99.90
11385;DHT22;5747;56.748;13.882;2024-01-15T11:42:14;-5.60;99.90
11385;DHT22;5747;56.748;13.882;2024-01-15T11:44:42;-5.60;99.90
11385;DHT22;5747;56.748;13.882;2024-01-15T11:47:12;-5.60;99.90
11385;DHT22;5747;56.748;13.882;2024-01-15T11:50:00;-5.60;99.90
11385;DHT22;5747;56.748;13.882;2024-01-15T11:52:33;-5.60;99.90
11385;DHT22;5747;56.748;13.882;2024-01-15T11:55:10;-5.60;99.90
11385;DHT22;5747;56.748;13.882;2024-01-15T11:57:46;-5.60;99.90
11385;DHT22;5747;56.748;13.882;2024-01-15T12:00:17;-5.60;99.90
11385;DHT22;5747;56.748;13.882;2024-01-15T12:02:46;-5.50;99.90
11385;DHT22;5747;56.748;13.882;2024-01-15T12:05:17;-5.50;99.90
11385;DHT22;5747;56.748;13.882;2024-01-15T12:07:46;-5.50;99.90
11385;DHT22;5747;56.748;13.882;2024-01-15T12:10:17;-5.40;99.90
11385;DHT22;5747;56.748;13.882;2024-01-15T12:12:57;-5.40;99.90
11385;DHT22;5747;56.748;13.882;2024-01-15T12:15:26;-5.50;99.90
11385;DHT22;5747;56.748;13.882;2024-01-15T12:17:56;-5.40;99.90
11385;DHT22;5747;56.748;13.882;2024-01-15T12:20:27;-5.40;99.90
11385;DHT22;5747;56.748;13.882;2024-01-15T12:22:55;-5.40;99.90
11385;DHT22;5747;56.748;13.882;2024-01-15T12:25:30;-5.40;99.90
11385;DHT22;5747;56.748;13.882;2024-01-15T12:27:59;-5.40;99.90
11385;DHT22;5747;56.748;13.882;2024-01-15T12:30:28;-5.40;99.90
11385;DHT22;5747;56.748;13.882;2024-01-15T12:33:01;-5.40;99.90
11385;DHT22;5747;56.748;13.882;2024-01-15T12:35:31;-5.30;99.90
11385;DHT22;5747;56.748;13.882;2024-01-15T12:38:00;-5.30;99.90
11385;DHT22;5747;56.748;13.882;2024-01-15T12:40:31;-5.30;99.90
11385;DHT22;5747;56.748;13.882;2024-01-15T12:42:59;-5.30;99.90
11385;DHT22;5747;56.748;13.882;2024-01-15T12:45:29;-5.30;99.90
11385;DHT22;5747;56.748;13.882;2024-01-15T12:47:58;-5.30;99.90
11385;DHT22;5747;56.748;13.882;2024-01-15T12:50:27;-5.40;99.90
11385;DHT22;5747;56.748;13.882;2024-01-15T12:52:57;-5.40;99.90
11385;DHT22;5747;56.748;13.882;2024-01-15T12:55:26;-5.30;99.90
11385;DHT22;5747;56.748;13.882;2024-01-15T12:57:54;-5.30;99.90
11385;DHT22;5747;56.748;13.882;2024-01-15T13:00:22;-5.30;99.90
11385;DHT22;5747;56.748;13.882;2024-01-15T13:02:53;-5.30;99.90
11385;DHT22;5747;56.748;13.882;2024-01-15T13:05:22;-5.30;99.90
11385;DHT22;5747;56.748;13.882;2024-01-15T13:07:51;-5.30;99.90
11385;DHT22;5747;56.748;13.882;2024-01-15T13:10:21;-5.30;99.90
11385;DHT22;5747;56.748;13.882;2024-01-15T13:12:52;-5.20;99.90
11385;DHT22;5747;56.748;13.882;2024-01-15T13:15:21;-5.20;99.90
11385;DHT22;5747;56.748;13.882;2024-01-15T13:17:49;-5.20;99.90
11385;DHT22;5747;56.748;13.882;2024-01-15T13:20:17;-5.20;99.90
11385;DHT22;5747;56.748;13.882;2024-01-15T13:22:45;-5.20;99.90
11385;DHT22;5747;56.748;13.882;2024-01-15T13:25:13;-5.20;99.90
11385;DHT22;5747;56.748;13.882;2024-01-15T13:27:44;-5.20;99.90
11385;DHT22;5747;56.748;13.882;2024-01-15T13:30:13;-5.10;99.90
11385;DHT22;5747;56.748;13.882;2024-01-15T13:32:41;-5.10;99.90
11385;DHT22;5747;56.748;13.882;2024-01-15T13:35:09;-5.10;99.90
11385;DHT22;5747;56.748;13.882;2024-01-15T13:37:40;-5.10;99.90
11385;DHT22;5747;56.748;13.882;2024-01-15T13:40:10;-5.10;99.90
11385;DHT22;5747;56.748;13.882;2024-01-15T13:42:45;-5.10;99.90
11385;DHT22;5747;56.748;13.882;2024-01-15T13:45:14;-5.20;99.90
11385;DHT22;5747;56.748;13.882;2024-01-15T13:47:43;-5.30;99.90
11385;DHT22;5747;56.748;13.882;2024-01-15T13:50:12;-5.40;99.90
11385;DHT22;5747;56.748;13.882;2024-01-15T13:52:41;-5.40;99.90
11385;DHT22;5747;56.748;13.882;2024-01-15T13:55:09;-5.50;99.90
11385;DHT22;5747;56.748;13.882;2024-01-15T13:57:37;-5.60;99.90
11385;DHT22;5747;56.748;13.882;2024-01-15T14:00:08;-5.70;99.90
11385;DHT22;5747;56.748;13.882;2024-01-15T14:02:39;-5.70;99.90
11385;DHT22;5747;56.748;13.882;2024-01-15T14:05:08;-5.80;99.90
11385;DHT22;5747;56.748;13.882;2024-01-15T14:07:39;-5.90;99.90
11385;DHT22;5747;56.748;13.882;2024-01-15T14:10:10;-5.90;99.90
11385;DHT22;5747;56.748;13.882;2024-01-15T14:12:38;-6.00;99.90
11385;DHT22;5747;56.748;13.882;2024-01-15T14:15:09;-6.10;99.90
11385;DHT22;5747;56.748;13.882;2024-01-15T14:17:37;-6.10;99.90
11385;DHT22;5747;56.748;13.882;2024-01-15T14:20:07;-6.20;99.90
11385;DHT22;5747;56.748;13.882;2024-01-15T14:22:36;-6.20;99.90
11385;DHT22;5747;56.748;13.882;2024-01-15T14:25:05;-6.30;99.90
11385;DHT22;5747;56.748;13.882;2024-01-15T14:27:33;-6.40;99.90
11385;DHT22;5747;56.748;13.882;2024-01-15T14:30:01;-6.40;99.90
11385;DHT22;5747;56.748;13.882;2024-01-15T14:32:31;-6.40;99.90
11385;DHT22;5747;56.748;13.882;2024-01-15T14:34:59;-6.50;99.90
11385;DHT22;5747;56.748;13.882;2024-01-15T14:37:28;-6.50;99.90
11385;DHT22;5747;56.748;13.882;2024-01-15T14:39:56;-6.50;99.90
11385;DHT22;5747;56.748;13.882;2024-01-15T14:42:24;-6.50;99.90
11385;DHT22;5747;56.748;13.882;2024-01-15T14:44:53;-6.50;99.90
11385;DHT22;5747;56.748;13.882;2024-01-15T14:47:21;-6.50;99.90
11385;DHT22;5747;56.748;13.882;2024-01-15T14:49:52;-6.50;99.90
11385;DHT22;5747;56.748;13.882;2024-01-15T14:52:21;-6.50;99.90
11385;DHT22;5747;56.748;13.882;2024-01-15T14:54:49;-6.50;99.90
11385;DHT22;5747;56.748;13.882;2024-01-15T14:57:17;-6.50;99.90
11385;DHT22;5747;56.748;13.882;2024-01-15T14:59:46;-6.60;99.90
11385;DHT22;5747;56.748;13.882;2024-01-15T15:02:14;-6.60;99.90
11385;DHT22;5747;56.748;13.882;2024-01-15T15:04:42;-6.60;99.90
11385;DHT22;5747;56.748;13.882;2024-01-15T15:07:16;-6.60;99.90
11385;DHT22;5747;56.748;13.882;2024-01-15T15:09:45;-6.70;99.90
11385;DHT22;5747;56.748;13.882;2024-01-15T15:12:13;-6.70;99.90
11385;DHT22;5747;56.748;13.882;2024-01-15T15:14:41;-6.80;99.90
11385;DHT22;5747;56.748;13.882;2024-01-15T15:17:25;-6.90;99.90
11385;DHT22;5747;56.748;13.882;2024-01-15T15:19:54;-6.90;99.90
11385;DHT22;5747;56.748;13.882;2024-01-15T15:22:24;-7.00;99.90
11385;DHT22;5747;56.748;13.882;2024-01-15T15:24:52;-7.10;99.90
11385;DHT22;5747;56.748;13.882;2024-01-15T15:27:22;-7.10;99.90
11385;DHT22;5747;56.748;13.882;2024-01-15T15:29:50;-7.20;99.90
11385;DHT22;5747;56.748;13.882;2024-01-15T15:32:18;-7.30;99.90
11385;DHT22;5747;56.748;13.882;2024-01-15T15:34:46;-7.30;99.90
11385;DHT22;5747;56.748;13.882;2024-01-15T15:37:15;-7.40;99.90
11385;DHT22;5747;56.748;13.882;2024-01-15T15:39:45;-7.40;99.90
11385;DHT22;5747;56.748;13.882;2024-01-15T15:42:13;-7.40;99.90